sensor_id;sensor_type;location;lat;lon;timestamp;P1;durP1;ratioP1;P2;durP2;ratioP2
24157;SDS011;12316;50.904;4.200;2022-12-18T00:02:06;71.45;;;35.50;;
24157;SDS011;12316;50.904;4.200;2022-12-18T00:04:32;67.60;;;35.65;;
24157;SDS011;12316;50.904;4.200;2022-12-18T00:06:57;65.63;;;33.95;;
24157;SDS011;12316;50.904;4.200;2022-12-18T00:09:23;65.43;;;33.13;;
24157;SDS011;12316;50.904;4.200;2022-12-18T00:11:49;68.25;;;33.67;;
24157;SDS011;12316;50.904;4.200;2022-12-18T00:14:14;65.10;;;31.98;;
24157;SDS011;12316;50.904;4.200;2022-12-18T00:16:42;62.40;;;32.60;;
24157;SDS011;12316;50.904;4.200;2022-12-18T00:19:09;62.28;;;31.85;;
24157;SDS011;12316;50.904;4.200;2022-12-18T00:21:36;58.58;;;31.38;;
24157;SDS011;12316;50.904;4.200;2022-12-18T00:24:01;65.90;;;32.33;;
24157;SDS011;12316;50.904;4.200;2022-12-18T00:26:31;61.53;;;31.60;;
24157;SDS011;12316;50.904;4.200;2022-12-18T00:29:02;57.97;;;29.98;;
24157;SDS011;12316;50.904;4.200;2022-12-18T00:31:33;60.20;;;30.58;;
24157;SDS011;12316;50.904;4.200;2022-12-18T00:33:59;54.17;;;28.75;;
24157;SDS011;12316;50.904;4.200;2022-12-18T00:36:26;62.92;;;31.52;;
24157;SDS011;12316;50.904;4.200;2022-12-18T00:38:54;64.05;;;32.13;;
24157;SDS011;12316;50.904;4.200;2022-12-18T00:41:20;58.65;;;30.33;;
24157;SDS011;12316;50.904;4.200;2022-12-18T00:44:06;57.03;;;29.35;;
24157;SDS011;12316;50.904;4.200;2022-12-18T00:46:34;62.53;;;30.02;;
24157;SDS011;12316;50.904;4.200;2022-12-18T00:48:59;60.90;;;31.98;;
24157;SDS011;12316;50.904;4.200;2022-12-18T00:51:25;62.30;;;31.10;;
24157;SDS011;12316;50.904;4.200;2022-12-18T00:53:51;54.28;;;29.45;;
24157;SDS011;12316;50.904;4.200;2022-12-18T00:56:21;59.88;;;28.90;;
24157;SDS011;12316;50.904;4.200;2022-12-18T00:58:46;56.38;;;29.33;;
24157;SDS011;12316;50.904;4.200;2022-12-18T01:01:12;61.63;;;30.45;;
24157;SDS011;12316;50.904;4.200;2022-12-18T01:03:38;56.72;;;29.33;;
24157;SDS011;12316;50.904;4.200;2022-12-18T01:06:07;55.28;;;28.58;;
24157;SDS011;12316;50.904;4.200;2022-12-18T01:08:34;56.58;;;28.35;;
24157;SDS011;12316;50.904;4.200;2022-12-18T01:11:00;59.63;;;29.35;;
24157;SDS011;12316;50.904;4.200;2022-12-18T01:13:26;57.03;;;29.85;;
24157;SDS011;12316;50.904;4.200;2022-12-18T01:15:52;60.95;;;29.50;;
24157;SDS011;12316;50.904;4.200;2022-12-18T01:18:17;55.88;;;27.50;;
24157;SDS011;12316;50.904;4.200;2022-12-18T01:20:43;65.95;;;32.65;;
24157;SDS011;12316;50.904;4.200;2022-12-18T01:23:09;67.68;;;31.90;;
24157;SDS011;12316;50.904;4.200;2022-12-18T01:25:38;64.22;;;29.52;;
24157;SDS011;12316;50.904;4.200;2022-12-18T01:28:04;52.33;;;27.17;;
24157;SDS011;12316;50.904;4.200;2022-12-18T01:30:30;47.30;;;25.40;;
24157;SDS011;12316;50.904;4.200;2022-12-18T01:32:56;51.58;;;26.15;;
24157;SDS011;12316;50.904;4.200;2022-12-18T01:35:21;52.75;;;26.30;;
24157;SDS011;12316;50.904;4.200;2022-12-18T01:37:47;48.40;;;24.98;;
24157;SDS011;12316;50.904;4.200;2022-12-18T01:40:13;48.05;;;24.58;;
24157;SDS011;12316;50.904;4.200;2022-12-18T01:42:38;49.47;;;24.38;;
24157;SDS011;12316;50.904;4.200;2022-12-18T01:45:23;45.03;;;23.58;;
24157;SDS011;12316;50.904;4.200;2022-12-18T01:48:01;45.58;;;24.52;;
24157;SDS011;12316;50.904;4.200;2022-12-18T01:50:36;47.22;;;23.88;;
24157;SDS011;12316;50.904;4.200;2022-12-18T01:53:11;48.45;;;24.77;;
24157;SDS011;12316;50.904;4.200;2022-12-18T01:55:42;46.50;;;23.30;;
24157;SDS011;12316;50.904;4.200;2022-12-18T01:58:11;32.65;;;16.63;;
24157;SDS011;12316;50.904;4.200;2022-12-18T02:00:37;41.55;;;21.58;;
24157;SDS011;12316;50.904;4.200;2022-12-18T02:03:03;40.20;;;21.33;;
24157;SDS011;12316;50.904;4.200;2022-12-18T02:05:44;39.35;;;21.60;;
24157;SDS011;12316;50.904;4.200;2022-12-18T02:08:44;41.17;;;21.65;;
24157;SDS011;12316;50.904;4.200;2022-12-18T02:16:29;41.55;;;21.55;;
24157;SDS011;12316;50.904;4.200;2022-12-18T02:19:06;39.05;;;20.80;;
24157;SDS011;12316;50.904;4.200;2022-12-18T02:21:48;43.78;;;22.92;;
24157;SDS011;12316;50.904;4.200;2022-12-18T02:26:50;41.08;;;21.05;;
24157;SDS011;12316;50.904;4.200;2022-12-18T02:29:23;43.22;;;22.58;;
24157;SDS011;12316;50.904;4.200;2022-12-18T02:31:56;39.88;;;20.83;;
24157;SDS011;12316;50.904;4.200;2022-12-18T02:34:26;40.58;;;20.65;;
24157;SDS011;12316;50.904;4.200;2022-12-18T02:36:54;38.05;;;20.85;;
24157;SDS011;12316;50.904;4.200;2022-12-18T02:39:20;38.60;;;20.58;;
24157;SDS011;12316;50.904;4.200;2022-12-18T02:41:48;41.58;;;22.02;;
24157;SDS011;12316;50.904;4.200;2022-12-18T02:44:15;41.35;;;21.02;;
24157;SDS011;12316;50.904;4.200;2022-12-18T02:46:42;44.10;;;21.85;;
24157;SDS011;12316;50.904;4.200;2022-12-18T02:54:57;39.67;;;20.52;;
24157;SDS011;12316;50.904;4.200;2022-12-18T03:00:13;40.88;;;20.67;;
24157;SDS011;12316;50.904;4.200;2022-12-18T03:02:57;40.45;;;19.83;;
24157;SDS011;12316;50.904;4.200;2022-12-18T03:05:41;37.30;;;20.17;;
24157;SDS011;12316;50.904;4.200;2022-12-18T03:08:39;36.85;;;19.40;;
24157;SDS011;12316;50.904;4.200;2022-12-18T03:11:09;35.72;;;18.80;;
24157;SDS011;12316;50.904;4.200;2022-12-18T03:13:52;36.92;;;19.98;;
24157;SDS011;12316;50.904;4.200;2022-12-18T03:16:24;34.00;;;18.63;;
24157;SDS011;12316;50.904;4.200;2022-12-18T03:18:59;36.58;;;19.13;;
24157;SDS011;12316;50.904;4.200;2022-12-18T03:21:40;35.78;;;18.27;;
24157;SDS011;12316;50.904;4.200;2022-12-18T03:24:10;33.80;;;17.55;;
24157;SDS011;12316;50.904;4.200;2022-12-18T03:26:37;34.53;;;18.13;;
24157;SDS011;12316;50.904;4.200;2022-12-18T03:29:10;34.47;;;17.40;;
24157;SDS011;12316;50.904;4.200;2022-12-18T03:31:43;32.33;;;17.10;;
24157;SDS011;12316;50.904;4.200;2022-12-18T03:34:15;23.75;;;12.95;;
24157;SDS011;12316;50.904;4.200;2022-12-18T03:39:12;31.77;;;16.80;;
24157;SDS011;12316;50.904;4.200;2022-12-18T03:41:51;34.05;;;16.38;;
24157;SDS011;12316;50.904;4.200;2022-12-18T03:44:20;32.55;;;16.58;;
24157;SDS011;12316;50.904;4.200;2022-12-18T03:52:05;30.77;;;16.50;;
24157;SDS011;12316;50.904;4.200;2022-12-18T03:54:38;33.50;;;16.42;;
24157;SDS011;12316;50.904;4.200;2022-12-18T03:57:09;28.88;;;15.75;;
24157;SDS011;12316;50.904;4.200;2022-12-18T03:59:40;31.58;;;15.88;;
24157;SDS011;12316;50.904;4.200;2022-12-18T04:02:08;30.45;;;16.05;;
24157;SDS011;12316;50.904;4.200;2022-12-18T04:04:35;30.40;;;15.98;;
24157;SDS011;12316;50.904;4.200;2022-12-18T04:07:04;29.08;;;16.35;;
24157;SDS011;12316;50.904;4.200;2022-12-18T04:09:31;32.33;;;16.45;;
24157;SDS011;12316;50.904;4.200;2022-12-18T04:11:59;32.85;;;16.33;;
24157;SDS011;12316;50.904;4.200;2022-12-18T04:14:24;29.60;;;16.70;;
24157;SDS011;12316;50.904;4.200;2022-12-18T04:16:50;31.45;;;16.77;;
24157;SDS011;12316;50.904;4.200;2022-12-18T04:19:15;28.83;;;16.10;;
24157;SDS011;12316;50.904;4.200;2022-12-18T04:21:41;29.13;;;15.93;;
24157;SDS011;12316;50.904;4.200;2022-12-18T04:24:07;29.92;;;15.88;;
24157;SDS011;12316;50.904;4.200;2022-12-18T04:26:33;29.90;;;15.65;;
24157;SDS011;12316;50.904;4.200;2022-12-18T04:28:59;26.90;;;15.25;;
24157;SDS011;12316;50.904;4.200;2022-12-18T04:31:25;26.60;;;15.23;;
24157;SDS011;12316;50.904;4.200;2022-12-18T04:33:50;27.50;;;15.07;;
24157;SDS011;12316;50.904;4.200;2022-12-18T04:36:16;28.48;;;15.35;;
24157;SDS011;12316;50.904;4.200;2022-12-18T04:38:42;26.63;;;15.10;;
24157;SDS011;12316;50.904;4.200;2022-12-18T04:41:07;28.55;;;14.73;;
24157;SDS011;12316;50.904;4.200;2022-12-18T04:43:34;28.02;;;15.45;;
24157;SDS011;12316;50.904;4.200;2022-12-18T04:46:05;31.42;;;15.77;;
24157;SDS011;12316;50.904;4.200;2022-12-18T04:48:32;29.88;;;14.98;;
24157;SDS011;12316;50.904;4.200;2022-12-18T04:50:57;26.48;;;14.48;;
24157;SDS011;12316;50.904;4.200;2022-12-18T04:53:23;25.40;;;14.65;;
24157;SDS011;12316;50.904;4.200;2022-12-18T04:55:49;28.27;;;15.48;;
24157;SDS011;12316;50.904;4.200;2022-12-18T04:58:15;28.15;;;14.15;;
24157;SDS011;12316;50.904;4.200;2022-12-18T05:00:40;25.42;;;14.48;;
24157;SDS011;12316;50.904;4.200;2022-12-18T05:03:06;25.25;;;14.38;;
24157;SDS011;12316;50.904;4.200;2022-12-18T05:05:34;27.08;;;14.15;;
24157;SDS011;12316;50.904;4.200;2022-12-18T05:08:00;26.83;;;14.13;;
24157;SDS011;12316;50.904;4.200;2022-12-18T05:10:25;27.20;;;13.75;;
24157;SDS011;12316;50.904;4.200;2022-12-18T05:12:51;25.60;;;14.13;;
24157;SDS011;12316;50.904;4.200;2022-12-18T05:15:23;26.02;;;13.38;;
24157;SDS011;12316;50.904;4.200;2022-12-18T05:17:52;25.55;;;14.18;;
24157;SDS011;12316;50.904;4.200;2022-12-18T05:20:18;24.08;;;13.43;;
24157;SDS011;12316;50.904;4.200;2022-12-18T05:22:44;26.27;;;13.02;;
24157;SDS011;12316;50.904;4.200;2022-12-18T05:25:09;23.30;;;13.45;;
24157;SDS011;12316;50.904;4.200;2022-12-18T05:27:35;25.23;;;12.43;;
24157;SDS011;12316;50.904;4.200;2022-12-18T05:30:00;23.92;;;12.88;;
24157;SDS011;12316;50.904;4.200;2022-12-18T05:32:26;22.42;;;12.40;;
24157;SDS011;12316;50.904;4.200;2022-12-18T05:34:52;21.23;;;11.57;;
24157;SDS011;12316;50.904;4.200;2022-12-18T05:37:17;24.73;;;12.98;;
24157;SDS011;12316;50.904;4.200;2022-12-18T05:39:43;22.02;;;12.30;;
24157;SDS011;12316;50.904;4.200;2022-12-18T05:42:09;21.17;;;12.20;;
24157;SDS011;12316;50.904;4.200;2022-12-18T05:44:34;23.55;;;12.85;;
24157;SDS011;12316;50.904;4.200;2022-12-18T05:47:00;21.98;;;12.38;;
24157;SDS011;12316;50.904;4.200;2022-12-18T05:49:26;23.63;;;12.65;;
24157;SDS011;12316;50.904;4.200;2022-12-18T05:51:51;23.85;;;12.85;;
24157;SDS011;12316;50.904;4.200;2022-12-18T05:54:17;24.05;;;12.63;;
24157;SDS011;12316;50.904;4.200;2022-12-18T05:56:43;21.42;;;12.13;;
24157;SDS011;12316;50.904;4.200;2022-12-18T05:59:08;24.63;;;12.40;;
24157;SDS011;12316;50.904;4.200;2022-12-18T06:01:34;19.75;;;11.98;;
24157;SDS011;12316;50.904;4.200;2022-12-18T06:04:00;21.52;;;12.38;;
24157;SDS011;12316;50.904;4.200;2022-12-18T06:06:27;23.35;;;12.75;;
24157;SDS011;12316;50.904;4.200;2022-12-18T06:08:53;22.15;;;11.88;;
24157;SDS011;12316;50.904;4.200;2022-12-18T06:11:23;22.27;;;12.43;;
24157;SDS011;12316;50.904;4.200;2022-12-18T06:13:51;21.30;;;12.02;;
24157;SDS011;12316;50.904;4.200;2022-12-18T06:16:18;20.60;;;11.57;;
24157;SDS011;12316;50.904;4.200;2022-12-18T06:18:44;21.55;;;12.57;;
24157;SDS011;12316;50.904;4.200;2022-12-18T06:21:10;23.88;;;12.77;;
24157;SDS011;12316;50.904;4.200;2022-12-18T06:23:38;20.90;;;11.35;;
24157;SDS011;12316;50.904;4.200;2022-12-18T06:26:07;21.30;;;12.13;;
24157;SDS011;12316;50.904;4.200;2022-12-18T06:28:34;21.38;;;11.68;;
24157;SDS011;12316;50.904;4.200;2022-12-18T06:30:59;22.17;;;11.77;;
24157;SDS011;12316;50.904;4.200;2022-12-18T06:33:26;22.05;;;11.25;;
24157;SDS011;12316;50.904;4.200;2022-12-18T06:35:53;19.00;;;11.32;;
24157;SDS011;12316;50.904;4.200;2022-12-18T06:38:19;20.45;;;11.00;;
24157;SDS011;12316;50.904;4.200;2022-12-18T06:40:44;20.48;;;11.65;;
24157;SDS011;12316;50.904;4.200;2022-12-18T06:43:10;20.27;;;11.00;;
24157;SDS011;12316;50.904;4.200;2022-12-18T06:45:36;19.13;;;10.68;;
24157;SDS011;12316;50.904;4.200;2022-12-18T06:48:01;18.90;;;10.98;;
24157;SDS011;12316;50.904;4.200;2022-12-18T06:50:27;20.38;;;11.43;;
24157;SDS011;12316;50.904;4.200;2022-12-18T06:52:53;20.20;;;11.77;;
24157;SDS011;12316;50.904;4.200;2022-12-18T06:55:18;20.75;;;13.00;;
24157;SDS011;12316;50.904;4.200;2022-12-18T06:57:44;20.80;;;12.60;;
24157;SDS011;12316;50.904;4.200;2022-12-18T07:00:10;20.55;;;12.00;;
24157;SDS011;12316;50.904;4.200;2022-12-18T07:02:36;19.48;;;12.07;;
24157;SDS011;12316;50.904;4.200;2022-12-18T07:05:02;19.33;;;12.00;;
24157;SDS011;12316;50.904;4.200;2022-12-18T07:07:28;23.15;;;13.00;;
24157;SDS011;12316;50.904;4.200;2022-12-18T07:09:53;20.45;;;12.63;;
24157;SDS011;12316;50.904;4.200;2022-12-18T07:12:19;22.08;;;13.00;;
24157;SDS011;12316;50.904;4.200;2022-12-18T07:14:45;21.90;;;13.00;;
24157;SDS011;12316;50.904;4.200;2022-12-18T07:17:10;25.40;;;14.00;;
24157;SDS011;12316;50.904;4.200;2022-12-18T07:19:36;24.92;;;13.45;;
24157;SDS011;12316;50.904;4.200;2022-12-18T07:22:02;21.70;;;12.32;;
24157;SDS011;12316;50.904;4.200;2022-12-18T07:24:28;20.13;;;11.43;;
24157;SDS011;12316;50.904;4.200;2022-12-18T07:26:53;20.33;;;11.38;;
24157;SDS011;12316;50.904;4.200;2022-12-18T07:29:19;22.40;;;12.32;;
24157;SDS011;12316;50.904;4.200;2022-12-18T07:31:45;20.48;;;11.98;;
24157;SDS011;12316;50.904;4.200;2022-12-18T07:34:12;23.77;;;13.32;;
24157;SDS011;12316;50.904;4.200;2022-12-18T07:36:38;25.00;;;13.15;;
24157;SDS011;12316;50.904;4.200;2022-12-18T07:39:04;28.30;;;14.70;;
24157;SDS011;12316;50.904;4.200;2022-12-18T07:41:30;23.20;;;13.00;;
24157;SDS011;12316;50.904;4.200;2022-12-18T07:43:55;23.35;;;13.48;;
24157;SDS011;12316;50.904;4.200;2022-12-18T07:46:22;24.25;;;13.18;;
24157;SDS011;12316;50.904;4.200;2022-12-18T07:48:48;23.25;;;13.82;;
24157;SDS011;12316;50.904;4.200;2022-12-18T07:51:13;21.02;;;12.50;;
24157;SDS011;12316;50.904;4.200;2022-12-18T07:53:39;21.00;;;12.38;;
24157;SDS011;12316;50.904;4.200;2022-12-18T07:56:06;20.33;;;12.20;;
24157;SDS011;12316;50.904;4.200;2022-12-18T07:58:34;20.58;;;11.50;;
24157;SDS011;12316;50.904;4.200;2022-12-18T08:01:07;19.30;;;11.52;;
24157;SDS011;12316;50.904;4.200;2022-12-18T08:03:34;22.33;;;12.27;;
24157;SDS011;12316;50.904;4.200;2022-12-18T08:06:01;24.70;;;13.70;;
24157;SDS011;12316;50.904;4.200;2022-12-18T08:08:28;21.10;;;11.90;;
24157;SDS011;12316;50.904;4.200;2022-12-18T08:10:55;20.70;;;11.85;;
24157;SDS011;12316;50.904;4.200;2022-12-18T08:13:21;21.42;;;11.90;;
24157;SDS011;12316;50.904;4.200;2022-12-18T08:18:23;20.27;;;12.30;;
24157;SDS011;12316;50.904;4.200;2022-12-18T08:20:49;19.52;;;11.90;;
24157;SDS011;12316;50.904;4.200;2022-12-18T08:23:15;21.17;;;12.63;;
24157;SDS011;12316;50.904;4.200;2022-12-18T08:25:41;20.35;;;12.27;;
24157;SDS011;12316;50.904;4.200;2022-12-18T08:28:06;18.63;;;12.27;;
24157;SDS011;12316;50.904;4.200;2022-12-18T08:30:32;22.20;;;12.30;;
24157;SDS011;12316;50.904;4.200;2022-12-18T08:32:58;19.98;;;11.85;;
24157;SDS011;12316;50.904;4.200;2022-12-18T08:35:23;19.52;;;11.73;;
24157;SDS011;12316;50.904;4.200;2022-12-18T08:37:49;19.30;;;11.57;;
24157;SDS011;12316;50.904;4.200;2022-12-18T08:40:15;18.98;;;11.98;;
24157;SDS011;12316;50.904;4.200;2022-12-18T08:42:40;21.00;;;11.93;;
24157;SDS011;12316;50.904;4.200;2022-12-18T08:45:25;18.95;;;11.77;;
24157;SDS011;12316;50.904;4.200;2022-12-18T08:47:51;19.25;;;11.60;;
24157;SDS011;12316;50.904;4.200;2022-12-18T08:50:17;17.83;;;11.68;;
24157;SDS011;12316;50.904;4.200;2022-12-18T08:52:42;17.05;;;11.48;;
24157;SDS011;12316;50.904;4.200;2022-12-18T08:55:08;17.73;;;11.18;;
24157;SDS011;12316;50.904;4.200;2022-12-18T08:57:35;17.95;;;11.88;;
24157;SDS011;12316;50.904;4.200;2022-12-18T09:00:00;18.40;;;11.70;;
24157;SDS011;12316;50.904;4.200;2022-12-18T09:02:26;18.30;;;11.60;;
24157;SDS011;12316;50.904;4.200;2022-12-18T09:04:51;19.25;;;12.23;;
24157;SDS011;12316;50.904;4.200;2022-12-18T09:07:17;18.40;;;11.82;;
24157;SDS011;12316;50.904;4.200;2022-12-18T09:09:43;20.23;;;12.32;;
24157;SDS011;12316;50.904;4.200;2022-12-18T09:12:09;21.85;;;13.52;;
24157;SDS011;12316;50.904;4.200;2022-12-18T09:14:35;18.55;;;12.43;;
24157;SDS011;12316;50.904;4.200;2022-12-18T09:17:00;18.45;;;12.15;;
24157;SDS011;12316;50.904;4.200;2022-12-18T09:19:26;18.80;;;11.98;;
24157;SDS011;12316;50.904;4.200;2022-12-18T09:21:52;20.73;;;12.65;;
24157;SDS011;12316;50.904;4.200;2022-12-18T09:24:18;19.88;;;12.35;;
24157;SDS011;12316;50.904;4.200;2022-12-18T09:26:43;20.33;;;12.82;;
24157;SDS011;12316;50.904;4.200;2022-12-18T09:29:09;18.20;;;12.57;;
24157;SDS011;12316;50.904;4.200;2022-12-18T09:31:35;17.45;;;12.25;;
24157;SDS011;12316;50.904;4.200;2022-12-18T09:34:01;19.35;;;11.73;;
24157;SDS011;12316;50.904;4.200;2022-12-18T09:36:26;17.80;;;11.88;;
24157;SDS011;12316;50.904;4.200;2022-12-18T09:38:52;18.00;;;12.13;;
24157;SDS011;12316;50.904;4.200;2022-12-18T09:44:10;19.05;;;12.05;;
24157;SDS011;12316;50.904;4.200;2022-12-18T09:46:38;17.52;;;11.88;;
24157;SDS011;12316;50.904;4.200;2022-12-18T09:49:11;17.73;;;12.18;;
24157;SDS011;12316;50.904;4.200;2022-12-18T09:54:24;16.88;;;11.65;;
24157;SDS011;12316;50.904;4.200;2022-12-18T09:56:57;18.40;;;12.05;;
24157;SDS011;12316;50.904;4.200;2022-12-18T09:59:24;18.75;;;12.15;;
24157;SDS011;12316;50.904;4.200;2022-12-18T10:01:54;17.83;;;11.88;;
24157;SDS011;12316;50.904;4.200;2022-12-18T10:04:19;18.15;;;12.65;;
24157;SDS011;12316;50.904;4.200;2022-12-18T10:09:37;20.23;;;12.25;;
24157;SDS011;12316;50.904;4.200;2022-12-18T10:12:22;20.23;;;12.73;;
24157;SDS011;12316;50.904;4.200;2022-12-18T10:17:55;20.80;;;12.95;;
24157;SDS011;12316;50.904;4.200;2022-12-18T10:23:16;21.67;;;12.90;;
24157;SDS011;12316;50.904;4.200;2022-12-18T10:26:07;19.30;;;12.68;;
24157;SDS011;12316;50.904;4.200;2022-12-18T10:28:37;18.75;;;11.88;;
24157;SDS011;12316;50.904;4.200;2022-12-18T10:31:12;21.25;;;12.85;;
24157;SDS011;12316;50.904;4.200;2022-12-18T10:33:44;18.83;;;12.43;;
24157;SDS011;12316;50.904;4.200;2022-12-18T10:36:11;18.95;;;12.38;;
24157;SDS011;12316;50.904;4.200;2022-12-18T10:38:37;18.13;;;12.70;;
24157;SDS011;12316;50.904;4.200;2022-12-18T10:43:39;21.25;;;13.15;;
24157;SDS011;12316;50.904;4.200;2022-12-18T10:48:41;18.65;;;12.70;;
24157;SDS011;12316;50.904;4.200;2022-12-18T10:51:26;14.80;;;9.05;;
24157;SDS011;12316;50.904;4.200;2022-12-18T10:54:04;20.10;;;12.38;;
24157;SDS011;12316;50.904;4.200;2022-12-18T10:56:37;18.67;;;12.30;;
24157;SDS011;12316;50.904;4.200;2022-12-18T10:59:05;20.23;;;12.45;;
24157;SDS011;12316;50.904;4.200;2022-12-18T11:01:46;18.92;;;12.68;;
24157;SDS011;12316;50.904;4.200;2022-12-18T11:04:20;19.77;;;12.13;;
24157;SDS011;12316;50.904;4.200;2022-12-18T11:07:04;18.05;;;12.25;;
24157;SDS011;12316;50.904;4.200;2022-12-18T11:09:33;20.77;;;13.02;;
24157;SDS011;12316;50.904;4.200;2022-12-18T11:12:01;21.35;;;13.18;;
24157;SDS011;12316;50.904;4.200;2022-12-18T11:14:32;19.08;;;12.13;;
24157;SDS011;12316;50.904;4.200;2022-12-18T11:16:59;18.92;;;12.00;;
24157;SDS011;12316;50.904;4.200;2022-12-18T11:19:33;19.92;;;12.38;;
24157;SDS011;12316;50.904;4.200;2022-12-18T11:22:00;20.25;;;13.02;;
24157;SDS011;12316;50.904;4.200;2022-12-18T11:24:30;20.52;;;13.05;;
24157;SDS011;12316;50.904;4.200;2022-12-18T11:26:58;17.92;;;12.07;;
24157;SDS011;12316;50.904;4.200;2022-12-18T11:29:36;20.70;;;13.02;;
24157;SDS011;12316;50.904;4.200;2022-12-18T11:34:46;19.98;;;12.07;;
24157;SDS011;12316;50.904;4.200;2022-12-18T11:37:17;19.42;;;12.80;;
24157;SDS011;12316;50.904;4.200;2022-12-18T11:39:53;19.17;;;12.82;;
24157;SDS011;12316;50.904;4.200;2022-12-18T11:45:35;19.13;;;12.43;;
24157;SDS011;12316;50.904;4.200;2022-12-18T11:48:42;19.65;;;11.75;;
24157;SDS011;12316;50.904;4.200;2022-12-18T11:54:16;19.63;;;12.40;;
24157;SDS011;12316;50.904;4.200;2022-12-18T11:56:46;22.08;;;13.02;;
24157;SDS011;12316;50.904;4.200;2022-12-18T12:02:09;23.38;;;12.77;;
24157;SDS011;12316;50.904;4.200;2022-12-18T12:04:55;23.30;;;13.15;;
24157;SDS011;12316;50.904;4.200;2022-12-18T12:14:12;25.55;;;14.00;;
24157;SDS011;12316;50.904;4.200;2022-12-18T12:22:34;19.17;;;12.57;;
24157;SDS011;12316;50.904;4.200;2022-12-18T12:27:49;19.38;;;12.55;;
24157;SDS011;12316;50.904;4.200;2022-12-18T12:30:39;19.40;;;12.05;;
24157;SDS011;12316;50.904;4.200;2022-12-18T12:36:19;24.13;;;13.65;;
24157;SDS011;12316;50.904;4.200;2022-12-18T12:39:06;21.98;;;13.15;;
24157;SDS011;12316;50.904;4.200;2022-12-18T12:41:36;24.08;;;14.25;;
24157;SDS011;12316;50.904;4.200;2022-12-18T12:44:24;22.45;;;13.57;;
24157;SDS011;12316;50.904;4.200;2022-12-18T12:46:59;24.27;;;14.75;;
24157;SDS011;12316;50.904;4.200;2022-12-18T12:49:30;21.98;;;14.23;;
24157;SDS011;12316;50.904;4.200;2022-12-18T12:54:32;21.80;;;13.77;;
24157;SDS011;12316;50.904;4.200;2022-12-18T12:57:01;21.83;;;14.35;;
24157;SDS011;12316;50.904;4.200;2022-12-18T13:04:47;22.33;;;14.13;;
24157;SDS011;12316;50.904;4.200;2022-12-18T13:15:45;21.27;;;13.73;;
24157;SDS011;12316;50.904;4.200;2022-12-18T13:18:27;22.08;;;14.45;;
24157;SDS011;12316;50.904;4.200;2022-12-18T13:41:43;24.13;;;15.35;;
24157;SDS011;12316;50.904;4.200;2022-12-18T13:46:59;25.15;;;15.35;;
24157;SDS011;12316;50.904;4.200;2022-12-18T13:49:40;27.35;;;16.02;;
24157;SDS011;12316;50.904;4.200;2022-12-18T13:55:04;27.73;;;15.95;;
24157;SDS011;12316;50.904;4.200;2022-12-18T13:57:37;29.52;;;16.40;;
24157;SDS011;12316;50.904;4.200;2022-12-18T14:02:47;27.50;;;16.95;;
24157;SDS011;12316;50.904;4.200;2022-12-18T14:05:23;27.70;;;17.17;;
24157;SDS011;12316;50.904;4.200;2022-12-18T14:07:48;27.30;;;17.17;;
24157;SDS011;12316;50.904;4.200;2022-12-18T14:10:15;29.00;;;17.35;;
24157;SDS011;12316;50.904;4.200;2022-12-18T14:12:44;33.05;;;17.70;;
24157;SDS011;12316;50.904;4.200;2022-12-18T14:15:43;31.08;;;18.90;;
24157;SDS011;12316;50.904;4.200;2022-12-18T14:21:03;30.55;;;18.55;;
24157;SDS011;12316;50.904;4.200;2022-12-18T14:23:40;32.17;;;18.95;;
24157;SDS011;12316;50.904;4.200;2022-12-18T14:28:54;36.03;;;20.08;;
24157;SDS011;12316;50.904;4.200;2022-12-18T14:31:27;32.47;;;20.02;;
24157;SDS011;12316;50.904;4.200;2022-12-18T14:33:54;30.38;;;19.48;;
24157;SDS011;12316;50.904;4.200;2022-12-18T14:36:21;34.03;;;20.40;;
24157;SDS011;12316;50.904;4.200;2022-12-18T14:38:53;36.03;;;20.40;;
24157;SDS011;12316;50.904;4.200;2022-12-18T14:41:20;34.78;;;20.23;;
24157;SDS011;12316;50.904;4.200;2022-12-18T14:43:48;31.88;;;20.27;;
24157;SDS011;12316;50.904;4.200;2022-12-18T14:48:54;36.22;;;20.90;;
24157;SDS011;12316;50.904;4.200;2022-12-18T14:51:22;32.63;;;19.67;;
24157;SDS011;12316;50.904;4.200;2022-12-18T14:53:54;35.75;;;21.38;;
24157;SDS011;12316;50.904;4.200;2022-12-18T14:56:32;33.63;;;20.00;;
24157;SDS011;12316;50.904;4.200;2022-12-18T14:59:12;36.67;;;21.20;;
24157;SDS011;12316;50.904;4.200;2022-12-18T15:04:39;36.13;;;20.58;;
24157;SDS011;12316;50.904;4.200;2022-12-18T15:07:12;36.08;;;21.25;;
24157;SDS011;12316;50.904;4.200;2022-12-18T15:09:42;34.97;;;20.90;;
24157;SDS011;12316;50.904;4.200;2022-12-18T15:12:33;33.78;;;20.65;;
24157;SDS011;12316;50.904;4.200;2022-12-18T15:20:40;35.90;;;20.05;;
24157;SDS011;12316;50.904;4.200;2022-12-18T15:23:16;37.40;;;20.88;;
24157;SDS011;12316;50.904;4.200;2022-12-18T15:25:54;33.20;;;20.05;;
24157;SDS011;12316;50.904;4.200;2022-12-18T15:28:22;36.20;;;19.95;;
24157;SDS011;12316;50.904;4.200;2022-12-18T15:31:20;33.80;;;19.23;;
24157;SDS011;12316;50.904;4.200;2022-12-18T15:36:18;36.55;;;20.17;;
24157;SDS011;12316;50.904;4.200;2022-12-18T15:38:46;34.17;;;19.50;;
24157;SDS011;12316;50.904;4.200;2022-12-18T15:41:13;35.40;;;20.20;;
24157;SDS011;12316;50.904;4.200;2022-12-18T15:43:40;34.30;;;20.27;;
24157;SDS011;12316;50.904;4.200;2022-12-18T15:46:09;36.08;;;19.98;;
24157;SDS011;12316;50.904;4.200;2022-12-18T15:48:50;34.95;;;19.80;;
24157;SDS011;12316;50.904;4.200;2022-12-18T15:53:46;33.20;;;18.95;;
24157;SDS011;12316;50.904;4.200;2022-12-18T15:56:16;35.33;;;19.20;;
24157;SDS011;12316;50.904;4.200;2022-12-18T15:59:00;32.75;;;19.40;;
24157;SDS011;12316;50.904;4.200;2022-12-18T16:01:27;32.92;;;18.77;;
24157;SDS011;12316;50.904;4.200;2022-12-18T16:03:56;32.38;;;19.33;;
24157;SDS011;12316;50.904;4.200;2022-12-18T16:06:21;34.97;;;18.88;;
24157;SDS011;12316;50.904;4.200;2022-12-18T16:08:48;37.17;;;20.17;;
24157;SDS011;12316;50.904;4.200;2022-12-18T16:11:24;31.00;;;19.20;;
24157;SDS011;12316;50.904;4.200;2022-12-18T16:14:25;34.10;;;19.48;;
24157;SDS011;12316;50.904;4.200;2022-12-18T16:16:55;35.20;;;19.10;;
24157;SDS011;12316;50.904;4.200;2022-12-18T16:19:25;36.28;;;19.70;;
24157;SDS011;12316;50.904;4.200;2022-12-18T16:21:52;35.83;;;20.30;;
24157;SDS011;12316;50.904;4.200;2022-12-18T16:24:21;32.45;;;18.70;;
24157;SDS011;12316;50.904;4.200;2022-12-18T16:26:51;35.20;;;19.05;;
24157;SDS011;12316;50.904;4.200;2022-12-18T16:29:18;33.28;;;19.02;;
24157;SDS011;12316;50.904;4.200;2022-12-18T16:31:49;33.40;;;18.75;;
24157;SDS011;12316;50.904;4.200;2022-12-18T16:36:55;33.90;;;19.02;;
24157;SDS011;12316;50.904;4.200;2022-12-18T16:39:22;33.75;;;19.10;;
24157;SDS011;12316;50.904;4.200;2022-12-18T16:41:48;34.15;;;19.27;;
24157;SDS011;12316;50.904;4.200;2022-12-18T16:44:14;34.22;;;19.40;;
24157;SDS011;12316;50.904;4.200;2022-12-18T16:46:46;35.10;;;19.13;;
24157;SDS011;12316;50.904;4.200;2022-12-18T16:49:12;33.00;;;19.08;;
24157;SDS011;12316;50.904;4.200;2022-12-18T16:51:39;34.83;;;19.15;;
24157;SDS011;12316;50.904;4.200;2022-12-18T16:54:04;34.63;;;18.92;;
24157;SDS011;12316;50.904;4.200;2022-12-18T16:56:30;31.10;;;18.15;;
24157;SDS011;12316;50.904;4.200;2022-12-18T16:58:57;31.85;;;18.30;;
24157;SDS011;12316;50.904;4.200;2022-12-18T17:01:24;35.28;;;19.33;;